Terminal Aerodrome Forecast
Issued by NWS Jackson, MS

Home | Current Version | Previous Version | Text Only | Print | Product List | Glossary On
Versions: 1 2 3 4 5 6 7 8 9 10 11 12 13
761
FTUS44 KJAN 071120
TAFGLH
TAF
KGLH 071120Z 0712/0812 01003KT P6SM FEW250
     FM071500 31014KT P6SM SKC=

USA.gov is the U.S. government's official web portal to all federal, state and local government web resources and services.